首页
METAR-TAF:

METAR-TAF

机场 :

Geilenkirchen, 德国

纬度: 50-57-39N, 经度: 006-2-33E, 海拔: 90米

当前天气观测

该预报发布于22分钟前的05:50 UTC
风速8节,风向西
温度 14°C
湿度 82%
气压 1033 hPa
能见度10公里或以上
1500米以下无云,无积雨云

METAR: ETNG 250550Z 28008KT CAVOK 14/11 Q1033 NOSIG

时间: 08:12 (06:12 UTC)

预报

该预报发布于1小时和12分钟前的05:00 UTC
预报有效从25日的 06点(UTC)到 25日的 21点(UTC)
风速8节,风向西北
能见度10公里或以上
散云层高于2500英尺
多云层高于4000英尺
几率 30% :
短暂存在
从 25日的 06点(UTC)到 25日的 09点(UTC)
能見度: 7000
散云层高于1800英尺, 塔状积云.
小阵雨
成为
从 25日的 10点(UTC)到 25日的 12点(UTC)
风速10节,风向,有时为18节阵风
成为
从 25日的 15点(UTC)到 25日的 17点(UTC)
风速6节,风向

TAF: ETNG 250500Z 2506/2521 32008KT 9999 SCT025 BKN040 PROB30 TEMPO 2506/2509 7000 -SHRA SCT018TCU BECMG 2510/2512 35010G18KT BECMG 2515/2517 36006KT

超过4000个机场的气象观测和天气预报(METAR&TAF报告)。

可查询的气象台以黄色和红色小点在地图上表示。

将鼠标移到小点上方,可查看气象台名称。

然后点击查看天气观测和预报。

如需切换地图:点击带黑十字的绿色按钮放大地图;点击带横线的绿色按钮缩小地图;或者点击绿色箭头查看邻近地区的地图。


METAR-TAF: